Time;durP1;ratioP1;P1;durP2;ratioP2;P2;SDS_P1;SDS_P2;PMS_P1;PMS_P2;Temp;Humidity;BMP_temperature;BMP_pressure;BME280_temperature;BME280_humidity;BME280_pressure;Samples;Min_cycle;Max_cycle;Signal;HPM_P1;HPM_P2
2021/10/10 00:02:11;;;;;;;14.48;12.15;;;7.60;99.90;;;;;;5003802;28;20212;-81
2021/10/10 00:04:38;;;;;;;18.58;15.80;;;7.60;99.90;;;;;;5003577;28;20259;-81
2021/10/10 00:07:04;;;;;;;15.30;13.65;;;7.60;99.90;;;;;;5003629;28;20207;-81
2021/10/10 00:09:31;;;;;;;14.73;12.63;;;7.60;99.90;;;;;;5003500;28;20207;-82
2021/10/10 00:11:58;;;;;;;14.15;12.68;;;7.50;99.90;;;;;;5003269;28;20296;-80
2021/10/10 00:14:26;;;;;;;19.20;13.98;;;7.50;99.90;;;;;;5003653;28;20239;-81
2021/10/10 00:16:53;;;;;;;15.60;14.00;;;7.40;99.90;;;;;;5002247;28;20574;-82
2021/10/10 00:19:20;;;;;;;18.27;12.85;;;7.40;99.90;;;;;;5002910;28;20211;-82
2021/10/10 00:21:47;;;;;;;13.88;12.57;;;7.40;99.90;;;;;;5002740;28;20204;-82
2021/10/10 00:24:13;;;;;;;16.63;14.80;;;7.40;99.90;;;;;;5002993;28;20231;-82
2021/10/10 00:26:40;;;;;;;13.65;12.23;;;7.40;99.90;;;;;;5003099;28;20254;-82
2021/10/10 00:29:07;;;;;;;13.23;11.75;;;7.30;99.90;;;;;;5003485;28;20658;-79
2021/10/10 00:31:35;;;;;;;16.00;13.20;;;7.30;99.90;;;;;;5003548;28;20207;-81
2021/10/10 00:34:02;;;;;;;14.85;13.05;;;7.30;99.90;;;;;;5002651;28;20227;-79
2021/10/10 00:36:30;;;;;;;14.82;12.45;;;7.30;99.90;;;;;;5003062;28;20207;-79
2021/10/10 00:38:57;;;;;;;17.70;12.93;;;7.30;99.90;;;;;;5002938;28;20207;-82
2021/10/10 00:41:24;;;;;;;16.05;13.52;;;7.30;99.90;;;;;;5003115;28;20697;-82
2021/10/10 00:43:50;;;;;;;13.20;11.48;;;7.20;99.90;;;;;;4999842;28;20235;-82
2021/10/10 00:46:17;;;;;;;14.77;13.27;;;7.20;99.90;;;;;;5001700;28;20319;-83
2021/10/10 00:48:46;;;;;;;13.50;12.05;;;7.20;99.90;;;;;;5004478;28;20212;-81
2021/10/10 00:51:12;;;;;;;16.30;12.63;;;7.20;99.90;;;;;;5006909;28;20208;-82
2021/10/10 00:53:40;;;;;;;15.80;12.57;;;7.10;99.90;;;;;;5005949;28;20600;-82
2021/10/10 00:56:07;;;;;;;13.30;12.10;;;7.10;99.90;;;;;;5005501;28;20207;-82
2021/10/10 00:58:36;;;;;;;14.35;12.18;;;7.10;99.90;;;;;;5005661;28;20215;-82
2021/10/10 01:01:03;;;;;;;13.07;11.88;;;7.10;99.90;;;;;;5006403;28;20200;-82
2021/10/10 01:03:31;;;;;;;12.50;11.45;;;7.10;99.90;;;;;;5005712;28;20223;-83
2021/10/10 01:05:59;;;;;;;15.38;12.43;;;7.00;99.90;;;;;;5005994;28;20219;-82
2021/10/10 01:08:25;;;;;;;15.95;13.43;;;7.00;99.90;;;;;;5006333;28;20204;-80
2021/10/10 01:10:52;;;;;;;14.23;12.65;;;7.00;99.90;;;;;;5005579;28;20735;-78
2021/10/10 01:13:19;;;;;;;12.95;11.75;;;6.90;99.90;;;;;;5004844;28;20720;-83
2021/10/10 01:15:48;;;;;;;15.30;13.60;;;6.80;99.90;;;;;;5007076;28;20603;-83
2021/10/10 01:18:21;;;;;;;14.90;13.27;;;6.70;99.90;;;;;;5006586;28;20203;-80
2021/10/10 01:20:50;;;;;;;16.00;12.85;;;6.60;99.90;;;;;;5007020;28;20203;-81
2021/10/10 01:23:17;;;;;;;13.93;12.50;;;6.40;99.90;;;;;;5006134;28;20239;-83
2021/10/10 01:25:44;;;;;;;13.32;11.98;;;6.50;99.90;;;;;;5006419;28;20228;-82
2021/10/10 01:28:11;;;;;;;12.18;10.95;;;6.50;99.90;;;;;;5007316;28;20729;-82
2021/10/10 01:30:38;;;;;;;13.27;11.93;;;6.50;99.90;;;;;;5007560;28;20204;-82
2021/10/10 01:33:07;;;;;;;12.45;11.15;;;6.50;99.90;;;;;;5007446;28;20228;-82
2021/10/10 01:35:34;;;;;;;14.38;13.00;;;6.60;99.90;;;;;;5007201;28;20227;-83
2021/10/10 01:38:03;;;;;;;16.13;12.48;;;6.60;99.90;;;;;;5006995;28;20223;-82
2021/10/10 01:40:30;;;;;;;13.15;11.85;;;6.60;99.90;;;;;;5008219;28;20208;-83
2021/10/10 01:42:56;;;;;;;13.10;11.80;;;6.60;99.90;;;;;;5011956;28;20220;-82
2021/10/10 01:45:25;;;;;;;20.77;14.13;;;6.60;99.90;;;;;;5008329;28;20220;-81
2021/10/10 01:47:51;;;;;;;13.48;11.68;;;6.60;99.90;;;;;;5005382;28;20597;-82
2021/10/10 01:50:18;;;;;;;13.57;12.27;;;6.50;99.90;;;;;;5005565;28;20207;-81
2021/10/10 01:52:47;;;;;;;17.17;14.45;;;6.50;99.90;;;;;;5004116;28;20238;-81
2021/10/10 01:55:15;;;;;;;14.85;13.30;;;6.50;99.90;;;;;;5005581;28;20262;-81
2021/10/10 01:57:42;;;;;;;15.52;13.07;;;6.50;99.90;;;;;;5004594;28;20214;-82
2021/10/10 02:00:10;;;;;;;15.25;11.52;;;6.50;99.90;;;;;;5004465;28;20215;-81
2021/10/10 02:02:37;;;;;;;16.83;14.02;;;6.50;99.90;;;;;;5004253;28;20227;-80
2021/10/10 02:05:04;;;;;;;13.85;12.30;;;6.40;99.90;;;;;;5004070;28;20211;-81
2021/10/10 02:07:31;;;;;;;14.27;11.77;;;6.30;99.90;;;;;;5004371;28;20219;-81
2021/10/10 02:09:58;;;;;;;16.50;12.85;;;6.30;99.90;;;;;;5002862;28;20210;-81
2021/10/10 02:12:26;;;;;;;13.40;10.98;;;6.30;99.90;;;;;;5003867;28;20210;-81
2021/10/10 02:14:53;;;;;;;12.70;10.88;;;6.30;99.90;;;;;;5003263;28;20204;-82
2021/10/10 02:17:20;;;;;;;13.82;11.48;;;6.30;99.90;;;;;;5003730;28;20218;-82
2021/10/10 02:19:46;;;;;;;16.08;12.40;;;6.30;99.90;;;;;;5004326;28;20624;-82
2021/10/10 02:22:13;;;;;;;16.00;12.45;;;6.20;99.90;;;;;;5004046;28;20203;-80
2021/10/10 02:24:40;;;;;;;14.43;12.57;;;6.00;99.90;;;;;;5004559;28;20219;-81
2021/10/10 02:27:06;;;;;;;16.20;13.15;;;5.70;99.90;;;;;;5004003;28;20231;-82
2021/10/10 02:29:34;;;;;;;14.98;13.02;;;5.80;99.90;;;;;;5004579;28;20215;-81
2021/10/10 02:32:01;;;;;;;18.25;13.98;;;5.80;99.90;;;;;;5003630;28;20203;-83
2021/10/10 02:34:28;;;;;;;16.13;13.38;;;5.90;99.90;;;;;;5004114;28;20613;-82
2021/10/10 02:36:55;;;;;;;15.88;13.73;;;5.90;99.90;;;;;;5004725;28;20199;-82
2021/10/10 02:39:22;;;;;;;15.82;14.23;;;5.80;99.90;;;;;;5004198;28;20208;-80
2021/10/10 02:41:49;;;;;;;14.13;12.70;;;5.80;99.90;;;;;;5004730;28;20208;-83
2021/10/10 02:44:15;;;;;;;15.90;14.32;;;5.90;99.90;;;;;;5003336;28;20697;-81
2021/10/10 02:46:44;;;;;;;17.85;14.25;;;6.00;99.90;;;;;;5003058;28;20238;-81
2021/10/10 02:49:10;;;;;;;16.90;13.35;;;6.00;99.90;;;;;;5003079;28;20208;-80
2021/10/10 02:51:37;;;;;;;19.10;13.98;;;6.00;99.90;;;;;;5003626;28;20207;-81
2021/10/10 02:54:04;;;;;;;19.17;13.70;;;5.90;99.90;;;;;;5005935;28;20227;-80
2021/10/10 02:56:31;;;;;;;15.90;13.07;;;5.90;99.90;;;;;;5006289;28;20203;-80
2021/10/10 02:58:57;;;;;;;18.52;13.05;;;6.00;99.90;;;;;;5006160;28;20204;-80
2021/10/10 03:01:24;;;;;;;13.10;11.85;;;5.90;99.90;;;;;;5004693;28;20538;-81
2021/10/10 03:03:52;;;;;;;16.63;14.73;;;5.90;99.90;;;;;;5003992;28;20230;-81
2021/10/10 03:06:19;;;;;;;18.05;13.80;;;5.70;99.90;;;;;;5003251;28;20230;-81
2021/10/10 03:08:45;;;;;;;15.77;13.38;;;5.70;99.90;;;;;;5003206;28;20212;-80
2021/10/10 03:11:12;;;;;;;20.08;15.68;;;5.70;99.90;;;;;;5002036;28;20216;-81
2021/10/10 03:13:39;;;;;;;16.63;13.90;;;5.60;99.90;;;;;;5004594;28;20230;-81
2021/10/10 03:16:06;;;;;;;15.50;13.90;;;5.70;99.90;;;;;;5003585;28;20211;-80
2021/10/10 03:18:33;;;;;;;20.17;13.70;;;5.70;99.90;;;;;;5004507;28;20214;-81
2021/10/10 03:21:01;;;;;;;14.88;13.38;;;5.70;99.90;;;;;;5005377;28;20214;-81
2021/10/10 03:23:27;;;;;;;17.90;14.15;;;5.70;99.90;;;;;;5003878;28;20239;-81
2021/10/10 03:25:54;;;;;;;17.95;14.90;;;5.70;99.90;;;;;;5003692;28;20223;-80
2021/10/10 03:28:21;;;;;;;18.88;16.90;;;5.80;99.90;;;;;;5003176;28;20622;-81
2021/10/10 03:30:48;;;;;;;18.25;15.07;;;5.70;99.90;;;;;;5003993;28;20208;-81
2021/10/10 03:33:15;;;;;;;20.05;15.18;;;5.60;99.90;;;;;;5003108;28;20230;-81
2021/10/10 03:35:41;;;;;;;23.48;16.55;;;5.50;99.90;;;;;;5003270;28;20579;-81
2021/10/10 03:38:09;;;;;;;18.75;15.35;;;5.50;99.90;;;;;;5003567;28;20214;-81
2021/10/10 03:40:36;;;;;;;18.45;15.77;;;5.40;99.90;;;;;;5003039;28;20203;-81
2021/10/10 03:43:03;;;;;;;14.77;13.18;;;5.50;99.90;;;;;;5003345;28;20246;-82
2021/10/10 03:45:30;;;;;;;16.25;14.38;;;5.60;99.90;;;;;;5002999;28;20215;-81
2021/10/10 03:47:56;;;;;;;14.68;13.10;;;5.70;99.90;;;;;;5001547;28;20567;-81
2021/10/10 03:50:23;;;;;;;17.27;13.05;;;5.70;99.90;;;;;;5002285;28;20215;-81
2021/10/10 03:52:50;;;;;;;18.40;14.18;;;5.80;99.90;;;;;;5001630;28;20227;-80
2021/10/10 03:55:27;;;;;;;13.38;11.88;;;5.80;99.90;;;;;;4999598;28;20684;-81
2021/10/10 03:57:54;;;;;;;13.73;12.18;;;5.80;99.90;;;;;;5000170;28;20211;-81
2021/10/10 04:00:21;;;;;;;14.13;12.70;;;5.80;99.90;;;;;;5001832;28;20628;-81
2021/10/10 04:02:48;;;;;;;14.15;11.85;;;5.70;99.90;;;;;;5002046;28;20709;-80
2021/10/10 04:05:21;;;;;;;13.77;12.43;;;5.60;99.90;;;;;;5001009;28;20212;-81
2021/10/10 04:07:49;;;;;;;13.48;11.52;;;5.50;99.90;;;;;;5001916;28;20592;-80
2021/10/10 04:10:16;;;;;;;18.40;14.02;;;5.50;99.90;;;;;;5001127;28;20219;-81
2021/10/10 04:12:44;;;;;;;14.40;12.75;;;5.40;99.90;;;;;;5001209;28;20223;-81
2021/10/10 04:15:12;;;;;;;15.50;13.73;;;5.40;99.90;;;;;;5001349;28;20238;-81
2021/10/10 04:17:39;;;;;;;15.82;11.75;;;5.40;99.90;;;;;;5006088;28;20275;-82
2021/10/10 04:20:08;;;;;;;13.70;12.27;;;5.40;99.90;;;;;;5006640;28;20200;-83
2021/10/10 04:22:34;;;;;;;15.48;13.82;;;5.40;99.90;;;;;;4970371;28;1044061;-84
2021/10/10 04:25:01;;;;;;;15.80;14.18;;;5.40;99.90;;;;;;5011333;28;20218;-84
2021/10/10 04:27:28;;;;;;;13.68;12.25;;;5.30;99.90;;;;;;5010810;28;20224;-83
2021/10/10 04:29:56;;;;;;;17.67;14.50;;;5.30;99.90;;;;;;5010401;28;20200;-83
2021/10/10 04:32:23;;;;;;;18.33;14.10;;;5.30;99.90;;;;;;5011604;28;20231;-82
2021/10/10 04:34:50;;;;;;;14.55;12.98;;;5.40;99.90;;;;;;5010850;28;20204;-84
2021/10/10 04:37:16;;;;;;;16.13;14.38;;;5.40;99.90;;;;;;5012111;28;20211;-83
2021/10/10 04:39:43;;;;;;;17.38;13.10;;;5.40;99.90;;;;;;5012796;28;20208;-82
2021/10/10 04:42:10;;;;;;;15.52;12.90;;;5.30;99.90;;;;;;5012520;28;20711;-83
2021/10/10 04:44:37;;;;;;;25.00;15.50;;;5.40;99.90;;;;;;5011883;28;20575;-83
2021/10/10 04:47:06;;;;;;;14.68;13.18;;;5.30;99.90;;;;;;5013650;28;20253;-85
2021/10/10 04:49:34;;;;;;;17.70;14.90;;;5.30;99.90;;;;;;5012498;28;20223;-84
2021/10/10 04:52:01;;;;;;;15.93;13.82;;;5.20;99.90;;;;;;5012771;28;20211;-85
2021/10/10 04:54:28;;;;;;;17.60;15.75;;;5.20;99.90;;;;;;5013378;28;20639;-84
2021/10/10 04:56:55;;;;;;;15.13;13.52;;;5.30;99.90;;;;;;5012726;28;20670;-84
2021/10/10 04:59:22;;;;;;;14.85;13.15;;;5.30;99.90;;;;;;5012561;28;20204;-85
2021/10/10 05:01:49;;;;;;;15.73;13.70;;;5.30;99.90;;;;;;5010836;28;20212;-84
2021/10/10 05:04:17;;;;;;;16.40;12.88;;;5.30;99.90;;;;;;5010376;28;20603;-83
2021/10/10 05:06:43;;;;;;;19.00;15.32;;;5.30;99.90;;;;;;5010725;28;20227;-83
2021/10/10 05:09:10;;;;;;;18.63;16.35;;;5.40;99.90;;;;;;5010257;28;20612;-83
2021/10/10 05:11:37;;;;;;;17.40;13.90;;;5.30;99.90;;;;;;5010720;28;20212;-84
2021/10/10 05:14:03;;;;;;;16.33;12.73;;;5.30;99.90;;;;;;5010152;28;20721;-83
2021/10/10 05:16:30;;;;;;;16.40;13.70;;;5.30;99.90;;;;;;5009913;28;20408;-83
2021/10/10 05:18:57;;;;;;;16.08;14.20;;;5.30;99.90;;;;;;5010130;28;20211;-82
2021/10/10 05:21:25;;;;;;;14.93;13.00;;;5.20;99.90;;;;;;5009410;28;20208;-83
2021/10/10 05:23:52;;;;;;;15.45;13.93;;;5.30;99.90;;;;;;5010101;28;20238;-82
2021/10/10 05:26:18;;;;;;;18.50;12.10;;;5.30;99.90;;;;;;5009786;28;20234;-83
2021/10/10 05:28:45;;;;;;;18.15;16.25;;;5.30;99.90;;;;;;5009748;28;20218;-82
2021/10/10 05:31:12;;;;;;;18.70;13.93;;;5.30;99.90;;;;;;5009852;28;20215;-82
2021/10/10 05:33:39;;;;;;;18.23;13.82;;;5.30;99.90;;;;;;5009694;28;20238;-83
2021/10/10 05:36:05;;;;;;;17.77;14.50;;;5.30;99.90;;;;;;4989858;28;20666;-82
2021/10/10 05:38:34;;;;;;;20.83;16.05;;;5.30;99.90;;;;;;4990640;28;20220;-81
2021/10/10 05:41:01;;;;;;;16.33;14.40;;;5.30;99.90;;;;;;5008225;28;20208;-81
2021/10/10 05:43:28;;;;;;;17.70;15.80;;;5.30;99.90;;;;;;5008445;28;20227;-81
2021/10/10 05:45:55;;;;;;;19.60;14.35;;;5.30;99.90;;;;;;5009197;28;20208;-82
2021/10/10 05:48:22;;;;;;;15.68;12.60;;;5.30;99.90;;;;;;5009828;28;20223;-84
2021/10/10 05:50:49;;;;;;;19.25;13.20;;;5.20;99.90;;;;;;5009941;28;20210;-84
2021/10/10 05:53:15;;;;;;;17.25;14.60;;;5.20;99.90;;;;;;5009156;28;20224;-81
2021/10/10 05:55:43;;;;;;;15.93;14.10;;;5.20;99.90;;;;;;5009467;28;20215;-80
2021/10/10 05:58:16;;;;;;;14.98;12.10;;;5.20;99.90;;;;;;5009193;28;20265;-82
2021/10/10 06:00:43;;;;;;;13.95;12.43;;;5.20;99.90;;;;;;5009579;28;20279;-82
2021/10/10 06:03:10;;;;;;;15.13;13.52;;;5.20;99.90;;;;;;5009654;28;20220;-83
2021/10/10 06:05:36;;;;;;;16.30;14.05;;;5.30;99.90;;;;;;5009354;28;20212;-83
2021/10/10 06:08:04;;;;;;;19.30;13.70;;;5.20;99.90;;;;;;5010022;28;20681;-81
2021/10/10 06:10:30;;;;;;;16.58;13.32;;;5.30;99.90;;;;;;5009895;28;20209;-84
2021/10/10 06:12:59;;;;;;;18.08;15.07;;;5.30;99.90;;;;;;5009560;28;20227;-83
2021/10/10 06:15:26;;;;;;;21.20;14.15;;;5.20;99.90;;;;;;5009695;28;20196;-84
2021/10/10 06:17:52;;;;;;;15.02;13.63;;;5.20;99.90;;;;;;5010886;28;20645;-82
2021/10/10 06:20:19;;;;;;;20.13;16.65;;;5.30;99.90;;;;;;5010720;28;20212;-82
2021/10/10 06:22:46;;;;;;;18.00;14.07;;;5.30;99.90;;;;;;5001854;28;20747;-81
2021/10/10 06:25:14;;;;;;;20.17;16.05;;;5.40;99.90;;;;;;5009956;28;20216;-84
2021/10/10 06:27:41;;;;;;;17.63;15.68;;;5.40;99.90;;;;;;5010682;28;20254;-82
2021/10/10 06:30:09;;;;;;;18.25;16.35;;;5.50;99.90;;;;;;5010879;28;20211;-82
2021/10/10 06:32:38;;;;;;;21.80;16.50;;;5.60;99.90;;;;;;5010126;28;20228;-83
2021/10/10 06:35:06;;;;;;;19.77;15.73;;;5.70;99.90;;;;;;5008756;28;20208;-84
2021/10/10 06:37:33;;;;;;;18.38;16.42;;;5.70;99.90;;;;;;5008776;28;20200;-83
2021/10/10 06:39:59;;;;;;;16.20;14.30;;;5.90;99.90;;;;;;5008774;28;20214;-83
2021/10/10 06:42:26;;;;;;;22.25;16.55;;;5.90;99.90;;;;;;5008341;28;20220;-83
2021/10/10 06:44:53;;;;;;;18.90;14.77;;;6.00;99.90;;;;;;5008231;28;20669;-81
2021/10/10 06:47:21;;;;;;;16.52;14.02;;;6.10;99.90;;;;;;5007007;28;20231;-81
2021/10/10 06:49:48;;;;;;;16.40;14.10;;;6.20;99.90;;;;;;5009029;28;20213;-81
2021/10/10 06:52:15;;;;;;;16.95;15.30;;;6.30;99.90;;;;;;5008212;28;20204;-81
2021/10/10 06:54:42;;;;;;;20.90;15.68;;;6.30;99.90;;;;;;5008423;28;20215;-83
2021/10/10 06:57:09;;;;;;;22.02;16.38;;;6.40;99.90;;;;;;5009534;28;20622;-81
2021/10/10 06:59:36;;;;;;;22.27;15.30;;;6.50;99.90;;;;;;5007584;28;20669;-82
2021/10/10 07:02:03;;;;;;;21.63;17.40;;;6.40;99.90;;;;;;5009086;28;20204;-82
2021/10/10 07:04:31;;;;;;;19.20;15.50;;;6.50;99.90;;;;;;5008531;28;20224;-83
2021/10/10 07:06:57;;;;;;;18.25;15.63;;;6.60;99.90;;;;;;4989508;28;20231;-82
2021/10/10 07:09:24;;;;;;;22.83;17.00;;;6.60;99.90;;;;;;4993787;28;20392;-82
2021/10/10 07:11:51;;;;;;;24.40;18.30;;;6.70;99.90;;;;;;5008037;28;20576;-82
2021/10/10 07:14:18;;;;;;;23.48;17.98;;;6.80;99.90;;;;;;5007315;28;20220;-81
2021/10/10 07:16:44;;;;;;;21.25;16.63;;;6.90;99.90;;;;;;5007988;28;20214;-83
2021/10/10 07:19:11;;;;;;;23.35;18.10;;;6.90;99.90;;;;;;5007666;28;20732;-81
2021/10/10 07:21:43;;;;;;;19.83;17.80;;;6.90;99.90;;;;;;5008813;28;20231;-80
2021/10/10 07:26:55;;;;;;;21.60;17.55;;;7.10;99.90;;;;;;5007718;28;20747;-82
2021/10/10 07:29:22;;;;;;;18.13;16.33;;;7.30;99.90;;;;;;5008240;28;20199;-83
2021/10/10 07:31:48;;;;;;;21.95;17.25;;;7.40;99.90;;;;;;5008642;28;20207;-84
2021/10/10 07:34:15;;;;;;;22.70;17.65;;;7.50;99.90;;;;;;5000558;28;20235;-80
2021/10/10 07:36:43;;;;;;;19.75;17.65;;;7.50;99.90;;;;;;5005689;28;20200;-84
2021/10/10 07:39:10;;;;;;;17.25;15.45;;;7.70;99.90;;;;;;4996697;28;20203;-83
2021/10/10 07:41:40;;;;;;;22.25;17.15;;;7.70;99.90;;;;;;5004478;28;20208;-82
2021/10/10 07:44:08;;;;;;;18.45;15.80;;;7.80;99.90;;;;;;4996163;28;20219;-80
2021/10/10 07:46:37;;;;;;;18.67;15.90;;;7.80;99.90;;;;;;5002603;28;20211;-79
2021/10/10 07:49:05;;;;;;;21.58;16.30;;;7.90;99.90;;;;;;4996723;28;20291;-80
2021/10/10 07:51:32;;;;;;;24.45;14.88;;;8.00;99.90;;;;;;4996575;28;20259;-80
2021/10/10 07:54:00;;;;;;;22.40;15.38;;;8.10;99.90;;;;;;4996228;28;20231;-79
2021/10/10 07:56:27;;;;;;;16.77;15.05;;;8.30;99.90;;;;;;4996574;28;20666;-80
2021/10/10 07:58:53;;;;;;;20.17;14.95;;;8.40;99.90;;;;;;4996560;28;20199;-80
2021/10/10 08:01:21;;;;;;;25.05;16.65;;;8.60;99.90;;;;;;4996612;28;20226;-80
2021/10/10 08:03:47;;;;;;;18.17;16.00;;;8.70;99.90;;;;;;4996417;28;20221;-80
2021/10/10 08:06:15;;;;;;;17.27;14.50;;;8.80;99.90;;;;;;4995879;28;20203;-80
2021/10/10 08:08:42;;;;;;;17.75;15.73;;;9.00;99.90;;;;;;4996454;28;20620;-80
2021/10/10 08:11:10;;;;;;;16.88;13.00;;;9.10;99.90;;;;;;4996837;28;20205;-80
2021/10/10 08:13:37;;;;;;;17.48;15.75;;;9.20;99.90;;;;;;4996271;28;20312;-81
2021/10/10 08:16:04;;;;;;;15.95;13.63;;;9.40;99.90;;;;;;4998373;28;20271;-80
2021/10/10 08:18:31;;;;;;;19.75;15.15;;;9.50;99.90;;;;;;4997858;28;20207;-80
2021/10/10 08:20:57;;;;;;;15.97;14.27;;;9.50;99.90;;;;;;4998263;28;20244;-80
2021/10/10 08:23:24;;;;;;;20.98;15.43;;;9.60;99.90;;;;;;5001394;28;20488;-81
2021/10/10 08:25:51;;;;;;;16.23;14.65;;;9.60;99.90;;;;;;5000336;28;20219;-81
2021/10/10 08:28:19;;;;;;;18.38;16.38;;;9.60;99.90;;;;;;4998214;28;20220;-80
2021/10/10 08:30:46;;;;;;;16.02;13.60;;;9.70;99.90;;;;;;5000233;28;20216;-79
2021/10/10 08:33:12;;;;;;;19.27;14.20;;;9.70;99.90;;;;;;5006398;28;20233;-77
2021/10/10 08:35:39;;;;;;;18.20;15.33;;;9.80;99.90;;;;;;5006030;28;20206;-77
2021/10/10 08:38:06;;;;;;;17.20;13.77;;;9.80;99.90;;;;;;5003559;28;20449;-79
2021/10/10 08:40:32;;;;;;;18.38;14.27;;;9.90;99.90;;;;;;4996298;28;20450;-79
2021/10/10 08:43:01;;;;;;;18.53;13.90;;;9.90;99.90;;;;;;4995657;28;20225;-80
2021/10/10 08:45:30;;;;;;;16.88;13.85;;;9.90;99.90;;;;;;4996337;28;20458;-79
2021/10/10 08:47:57;;;;;;;15.43;14.02;;;9.90;99.90;;;;;;4996114;28;20223;-79
2021/10/10 08:50:26;;;;;;;17.60;14.80;;;9.90;99.90;;;;;;4996166;28;20218;-79
2021/10/10 08:52:56;;;;;;;16.37;14.10;;;10.00;99.90;;;;;;4995569;28;20492;-79
2021/10/10 08:55:25;;;;;;;18.03;16.10;;;10.00;99.90;;;;;;4995820;28;20805;-80
2021/10/10 08:57:53;;;;;;;18.60;16.70;;;10.10;99.90;;;;;;4995972;28;20479;-79
2021/10/10 09:00:23;;;;;;;16.88;14.93;;;10.10;99.90;;;;;;4996466;28;20454;-80
2021/10/10 09:02:51;;;;;;;16.95;15.15;;;10.20;99.90;;;;;;4996112;28;20233;-79
2021/10/10 09:05:19;;;;;;;18.10;14.57;;;10.30;99.90;;;;;;4992593;28;20602;-80
2021/10/10 09:07:46;;;;;;;19.07;15.00;;;10.30;99.90;;;;;;4995351;28;20484;-79
2021/10/10 09:10:22;;;;;;;19.25;14.63;;;10.30;99.90;;;;;;4998025;28;20468;-79
2021/10/10 09:12:49;;;;;;;21.33;15.10;;;10.40;99.90;;;;;;4999348;28;20247;-79
2021/10/10 09:15:18;;;;;;;17.70;15.60;;;10.50;99.90;;;;;;4998573;28;20947;-79
2021/10/10 09:17:57;;;;;;;16.40;13.70;;;10.60;99.90;;;;;;4998968;28;20852;-79
2021/10/10 09:20:33;;;;;;;15.73;13.53;;;10.70;99.90;;;;;;4999270;28;20455;-79
2021/10/10 09:23:01;;;;;;;16.67;14.97;;;10.60;99.90;;;;;;4999262;28;20490;-79
2021/10/10 09:25:28;;;;;;;15.02;13.38;;;10.70;99.90;;;;;;4999070;28;20457;-80
2021/10/10 09:28:00;;;;;;;19.80;14.50;;;10.60;99.90;;;;;;4998810;28;20714;-79
2021/10/10 09:30:27;;;;;;;14.03;12.63;;;10.80;99.90;;;;;;4998871;28;20457;-79
2021/10/10 09:33:01;;;;;;;13.63;12.43;;;10.80;99.90;;;;;;4998951;28;20476;-80
2021/10/10 09:35:30;;;;;;;13.73;12.43;;;11.00;99.90;;;;;;4998115;28;20960;-79
2021/10/10 09:38:06;;;;;;;15.07;13.53;;;11.10;99.90;;;;;;4998166;28;20834;-79
2021/10/10 10:01:19;;;;;;;19.07;14.33;;;12.10;99.80;;;;;;4863048;29;20811;-86
2021/10/10 10:20:46;;;;;;;13.10;11.70;;;13.10;96.90;;;;;;4844861;29;20628;-84
2021/10/10 10:23:21;;;;;;;16.00;11.37;;;13.30;95.90;;;;;;4857441;29;20485;-83
2021/10/10 10:25:54;;;;;;;14.50;11.50;;;13.50;96.10;;;;;;4894432;29;20463;-83
2021/10/10 10:28:22;;;;;;;13.97;11.20;;;13.70;96.20;;;;;;4899028;29;20656;-84
2021/10/10 10:30:49;;;;;;;14.37;12.80;;;13.90;95.90;;;;;;4946258;28;20446;-84
2021/10/10 10:33:16;;;;;;;12.70;11.50;;;14.10;94.40;;;;;;4950576;29;20988;-85
2021/10/10 10:35:48;;;;;;;13.37;12.07;;;14.30;94.30;;;;;;4939446;29;20873;-85
2021/10/10 10:38:15;;;;;;;11.67;10.47;;;14.40;94.00;;;;;;4973096;28;20453;-84
2021/10/10 10:40:41;;;;;;;11.93;10.70;;;14.60;93.80;;;;;;4994911;28;20440;-83
2021/10/10 10:43:13;;;;;;;11.90;10.30;;;14.70;93.30;;;;;;4997635;28;20470;-82
2021/10/10 10:45:45;;;;;;;13.47;10.83;;;15.10;92.00;;;;;;5013825;28;20453;-83
2021/10/10 10:48:36;;;;;;;10.50;9.50;;;15.60;91.80;;;;;;5011067;28;20491;-80
2021/10/10 10:51:25;;;;;;;11.33;10.33;;;16.60;92.50;;;;;;4999705;28;20517;-80
2021/10/10 10:53:52;;;;;;;13.50;10.37;;;17.30;90.30;;;;;;5008464;28;20550;-80
2021/10/10 10:56:29;;;;;;;11.60;10.43;;;18.20;90.00;;;;;;4991613;28;20461;-80
2021/10/10 10:58:58;;;;;;;14.67;12.97;;;19.00;85.10;;;;;;5003123;28;20460;-81
2021/10/10 11:01:25;;;;;;;10.90;9.80;;;19.60;82.30;;;;;;5002877;28;20459;-80
2021/10/10 11:03:52;;;;;;;11.17;10.07;;;20.10;77.40;;;;;;4992902;28;20471;-80
2021/10/10 11:06:20;;;;;;;13.20;11.90;;;20.60;77.70;;;;;;5001150;28;20524;-81
2021/10/10 11:08:47;;;;;;;12.77;11.57;;;21.10;75.30;;;;;;5007415;28;20476;-81
2021/10/10 11:11:19;;;;;;;12.57;11.37;;;21.70;72.30;;;;;;4993723;28;20483;-81
2021/10/10 11:13:48;;;;;;;12.03;10.83;;;21.80;67.50;;;;;;4996553;28;20475;-81
2021/10/10 11:16:17;;;;;;;12.60;11.43;;;22.10;69.80;;;;;;5011573;28;20463;-81
2021/10/10 11:18:46;;;;;;;12.07;10.97;;;22.30;65.60;;;;;;5008911;28;20453;-81
2021/10/10 11:21:15;;;;;;;12.77;11.50;;;22.80;66.60;;;;;;4990740;28;20450;-81
2021/10/10 11:23:43;;;;;;;11.80;10.60;;;23.40;65.10;;;;;;5003801;28;20476;-79
2021/10/10 11:26:12;;;;;;;12.87;11.47;;;23.80;63.10;;;;;;4997851;28;20470;-80
2021/10/10 11:28:44;;;;;;;12.53;11.33;;;24.20;58.50;;;;;;4991987;28;20486;-80
2021/10/10 11:31:13;;;;;;;12.00;10.40;;;24.50;58.40;;;;;;5006713;28;20451;-81
2021/10/10 11:33:42;;;;;;;11.83;10.73;;;24.50;58.10;;;;;;4999914;28;20479;-82
2021/10/10 11:36:09;;;;;;;13.17;11.93;;;24.70;58.20;;;;;;4978998;28;20459;-82
2021/10/10 11:39:06;;;;;;;13.83;12.47;;;24.60;56.90;;;;;;4988000;28;20451;-82
2021/10/10 11:41:37;;;;;;;13.33;11.90;;;24.80;55.90;;;;;;4955345;28;20459;-78
2021/10/10 11:44:06;;;;;;;11.80;10.60;;;24.90;54.10;;;;;;4986649;28;20474;-78
2021/10/10 11:46:45;;;;;;;15.43;13.20;;;24.30;53.90;;;;;;4986735;28;20951;-77
2021/10/10 11:49:22;;;;;;;12.40;11.30;;;23.90;55.00;;;;;;4974768;28;20493;-77
2021/10/10 11:51:50;;;;;;;12.03;10.93;;;23.80;54.30;;;;;;4976576;28;20457;-77
2021/10/10 11:54:27;;;;;;;12.27;11.17;;;23.60;54.50;;;;;;4976064;28;20500;-79
2021/10/10 11:56:58;;;;;;;11.50;10.20;;;24.10;55.60;;;;;;4980366;28;20933;-79
2021/10/10 11:59:25;;;;;;;10.67;9.57;;;24.20;52.50;;;;;;4980832;28;20950;-79
2021/10/10 12:01:54;;;;;;;11.30;10.40;;;24.60;53.20;;;;;;4979647;28;20539;-79
2021/10/10 12:04:20;;;;;;;10.43;9.17;;;24.80;52.90;;;;;;4992359;28;20475;-77
2021/10/10 12:06:48;;;;;;;10.93;9.80;;;24.90;51.80;;;;;;4994545;28;20462;-78
2021/10/10 12:09:15;;;;;;;10.73;9.60;;;25.40;53.40;;;;;;4995109;28;20480;-78
2021/10/10 12:12:03;;;;;;;10.13;9.23;;;26.00;50.90;;;;;;4979154;28;20461;-78
2021/10/10 12:14:44;;;;;;;12.47;10.07;;;26.50;50.60;;;;;;4973315;28;20473;-79
2021/10/10 12:17:25;;;;;;;11.10;10.10;;;27.00;50.30;;;;;;4973443;28;20493;-79
2021/10/10 12:19:52;;;;;;;13.00;11.70;;;27.30;47.40;;;;;;4973588;28;20437;-80
2021/10/10 12:22:18;;;;;;;12.87;11.57;;;27.60;47.10;;;;;;4975898;28;20459;-79
2021/10/10 12:24:46;;;;;;;10.63;9.73;;;27.40;45.00;;;;;;4984806;28;20453;-79
2021/10/10 12:27:24;;;;;;;11.10;10.20;;;27.60;45.90;;;;;;4984074;28;20458;-79
2021/10/10 12:29:51;;;;;;;10.27;9.30;;;27.60;46.00;;;;;;4980885;28;20491;-80
2021/10/10 12:32:19;;;;;;;12.07;10.97;;;27.50;45.80;;;;;;4998435;28;20493;-81
2021/10/10 12:34:47;;;;;;;10.30;9.40;;;27.30;45.30;;;;;;4997840;28;20461;-81
2021/10/10 12:37:18;;;;;;;12.70;9.90;;;26.80;45.00;;;;;;5000617;28;20455;-78
2021/10/10 12:39:45;;;;;;;10.00;9.10;;;26.30;45.20;;;;;;4992532;28;20873;-78
2021/10/10 12:42:14;;;;;;;10.70;9.70;;;25.70;47.00;;;;;;4988809;28;20463;-80
2021/10/10 12:45:05;;;;;;;9.90;9.00;;;26.20;48.00;;;;;;4984318;28;20551;-84
2021/10/10 12:47:32;;;;;;;12.10;9.70;;;26.40;47.60;;;;;;4991171;28;20460;-79
2021/10/10 12:49:59;;;;;;;11.27;10.37;;;26.70;47.30;;;;;;5005553;28;20498;-80
2021/10/10 12:52:36;;;;;;;12.03;11.03;;;27.10;45.80;;;;;;5004313;28;20490;-80
2021/10/10 12:55:05;;;;;;;11.40;10.40;;;27.30;44.70;;;;;;5004237;28;20817;-79
2021/10/10 12:57:37;;;;;;;11.40;10.40;;;27.40;45.00;;;;;;4983696;28;20628;-80
2021/10/10 13:00:07;;;;;;;16.20;9.77;;;27.10;44.90;;;;;;4985755;28;20908;-80
2021/10/10 13:02:33;;;;;;;10.93;10.00;;;26.90;46.70;;;;;;4985272;28;21017;-80
2021/10/10 13:05:00;;;;;;;13.27;11.97;;;27.10;46.70;;;;;;4982612;28;20458;-80
2021/10/10 13:07:27;;;;;;;12.00;11.00;;;26.50;45.40;;;;;;4993110;28;20461;-79
2021/10/10 13:09:55;;;;;;;13.00;11.40;;;25.50;45.60;;;;;;4987946;28;20485;-78
2021/10/10 13:12:22;;;;;;;12.27;11.07;;;25.80;46.70;;;;;;4988212;28;20456;-79
2021/10/10 13:14:50;;;;;;;10.90;9.90;;;26.10;45.80;;;;;;4991615;28;20984;-80
2021/10/10 13:17:17;;;;;;;10.40;9.40;;;25.80;45.00;;;;;;4992695;28;20938;-80
2021/10/10 13:19:44;;;;;;;11.73;10.67;;;25.70;46.80;;;;;;4987895;28;20460;-80